Smiths Creek, Michigan
Current Conditions -  °F | °C
As of 4:36 PM on Friday 24 Oct 2014 (Local Time) from KPHN Reporting Station
Broken Clouds Broken Clouds  
Wind Chill: 59°   Ceiling: 3700
Heat Index: 59°   Visibility: 10mi
Dew Point: 45°   Wind: 7mph
Humidity: 59%   Direction: 230°SW
Pressure: 29.97"   Gusts: NA
Location:  42.91°N, 82.6°W
Report Text: KPHN 242036Z AUTO 23006KT 190V270 10SM BKN037 15/07 A2997 RMK AO2
Loading
Personal Weather Stations






























Interactive Weather Map
Tropical Storm Tracking
New forecast layout! Learn more

10-Day Weather Forecast

Advertisements
Track Severe Weather on mobile